sensor_id;sensor_type;location;lat;lon;timestamp;temperature;humidity
25046;DHT22;13044;49.304;12.840;2023-12-28T00:02:15;6.00;99.90
25046;DHT22;13044;49.304;12.840;2023-12-28T00:04:42;6.00;99.90
25046;DHT22;13044;49.304;12.840;2023-12-28T00:07:09;5.90;99.90
25046;DHT22;13044;49.304;12.840;2023-12-28T00:09:36;5.90;99.90
25046;DHT22;13044;49.304;12.840;2023-12-28T00:12:03;5.90;99.90
25046;DHT22;13044;49.304;12.840;2023-12-28T00:14:31;5.90;99.90
25046;DHT22;13044;49.304;12.840;2023-12-28T00:16:58;5.80;99.90
25046;DHT22;13044;49.304;12.840;2023-12-28T00:19:25;5.80;99.90
25046;DHT22;13044;49.304;12.840;2023-12-28T00:21:52;5.80;99.90
25046;DHT22;13044;49.304;12.840;2023-12-28T00:24:20;5.70;99.90
25046;DHT22;13044;49.304;12.840;2023-12-28T00:26:48;5.70;99.90
25046;DHT22;13044;49.304;12.840;2023-12-28T00:29:15;5.70;99.90
25046;DHT22;13044;49.304;12.840;2023-12-28T00:31:42;5.60;99.90
25046;DHT22;13044;49.304;12.840;2023-12-28T00:34:09;5.60;99.90
25046;DHT22;13044;49.304;12.840;2023-12-28T00:36:36;5.50;99.90
25046;DHT22;13044;49.304;12.840;2023-12-28T00:39:03;5.50;99.90
25046;DHT22;13044;49.304;12.840;2023-12-28T00:41:30;5.50;99.90
25046;DHT22;13044;49.304;12.840;2023-12-28T00:43:57;5.40;99.90
25046;DHT22;13044;49.304;12.840;2023-12-28T00:46:24;5.40;99.90
25046;DHT22;13044;49.304;12.840;2023-12-28T00:48:51;5.40;99.90
25046;DHT22;13044;49.304;12.840;2023-12-28T00:51:19;5.30;99.90
25046;DHT22;13044;49.304;12.840;2023-12-28T00:53:47;5.30;99.90
25046;DHT22;13044;49.304;12.840;2023-12-28T00:56:14;5.30;99.90
25046;DHT22;13044;49.304;12.840;2023-12-28T00:58:41;5.20;99.90
25046;DHT22;13044;49.304;12.840;2023-12-28T01:01:10;5.20;99.90
25046;DHT22;13044;49.304;12.840;2023-12-28T01:03:37;5.20;99.90
25046;DHT22;13044;49.304;12.840;2023-12-28T01:06:05;5.20;99.90
25046;DHT22;13044;49.304;12.840;2023-12-28T01:08:33;5.20;99.90
25046;DHT22;13044;49.304;12.840;2023-12-28T01:11:01;5.20;99.90
25046;DHT22;13044;49.304;12.840;2023-12-28T01:13:28;5.20;99.90
25046;DHT22;13044;49.304;12.840;2023-12-28T01:15:55;5.20;99.90
25046;DHT22;13044;49.304;12.840;2023-12-28T01:18:22;5.20;99.90
25046;DHT22;13044;49.304;12.840;2023-12-28T01:20:50;5.20;99.90
25046;DHT22;13044;49.304;12.840;2023-12-28T01:23:17;5.10;99.90
25046;DHT22;13044;49.304;12.840;2023-12-28T01:25:43;5.10;99.90
25046;DHT22;13044;49.304;12.840;2023-12-28T01:28:10;5.10;99.90
25046;DHT22;13044;49.304;12.840;2023-12-28T01:30:38;5.10;99.90
25046;DHT22;13044;49.304;12.840;2023-12-28T01:33:05;5.10;99.90
25046;DHT22;13044;49.304;12.840;2023-12-28T01:35:32;5.10;99.90
25046;DHT22;13044;49.304;12.840;2023-12-28T01:37:59;5.00;99.90
25046;DHT22;13044;49.304;12.840;2023-12-28T01:40:28;5.00;99.90
25046;DHT22;13044;49.304;12.840;2023-12-28T01:42:55;4.90;99.90
25046;DHT22;13044;49.304;12.840;2023-12-28T01:45:22;4.90;99.90
25046;DHT22;13044;49.304;12.840;2023-12-28T01:47:49;4.90;99.90
25046;DHT22;13044;49.304;12.840;2023-12-28T01:50:18;4.80;99.90
25046;DHT22;13044;49.304;12.840;2023-12-28T01:52:46;4.80;99.90
25046;DHT22;13044;49.304;12.840;2023-12-28T01:55:13;4.80;99.90
25046;DHT22;13044;49.304;12.840;2023-12-28T01:57:41;4.70;99.90
25046;DHT22;13044;49.304;12.840;2023-12-28T02:00:08;4.70;99.90
25046;DHT22;13044;49.304;12.840;2023-12-28T02:02:36;4.60;99.90
25046;DHT22;13044;49.304;12.840;2023-12-28T02:05:03;4.60;99.90
25046;DHT22;13044;49.304;12.840;2023-12-28T02:07:32;4.60;99.90
25046;DHT22;13044;49.304;12.840;2023-12-28T02:09:59;4.60;99.90
25046;DHT22;13044;49.304;12.840;2023-12-28T02:12:26;4.70;99.90
25046;DHT22;13044;49.304;12.840;2023-12-28T02:14:53;4.60;99.90
25046;DHT22;13044;49.304;12.840;2023-12-28T02:17:26;4.60;99.90
25046;DHT22;13044;49.304;12.840;2023-12-28T02:19:58;4.60;99.90
25046;DHT22;13044;49.304;12.840;2023-12-28T02:22:26;4.60;99.90
25046;DHT22;13044;49.304;12.840;2023-12-28T02:27:26;4.50;99.90
25046;DHT22;13044;49.304;12.840;2023-12-28T02:29:55;4.50;99.90
25046;DHT22;13044;49.304;12.840;2023-12-28T02:32:32;4.50;99.90
25046;DHT22;13044;49.304;12.840;2023-12-28T02:38:06;4.60;99.90
25046;DHT22;13044;49.304;12.840;2023-12-28T02:40:40;4.60;99.90
25046;DHT22;13044;49.304;12.840;2023-12-28T02:43:11;4.60;99.90
25046;DHT22;13044;49.304;12.840;2023-12-28T02:45:39;4.50;99.90
25046;DHT22;13044;49.304;12.840;2023-12-28T02:48:06;4.60;99.90
25046;DHT22;13044;49.304;12.840;2023-12-28T02:50:34;4.60;99.90
25046;DHT22;13044;49.304;12.840;2023-12-28T02:53:02;4.50;99.90
25046;DHT22;13044;49.304;12.840;2023-12-28T02:55:30;4.50;99.90
25046;DHT22;13044;49.304;12.840;2023-12-28T02:57:58;4.50;99.90
25046;DHT22;13044;49.304;12.840;2023-12-28T03:00:29;4.50;99.90
25046;DHT22;13044;49.304;12.840;2023-12-28T03:02:56;4.50;99.90
25046;DHT22;13044;49.304;12.840;2023-12-28T03:05:24;4.50;99.90
25046;DHT22;13044;49.304;12.840;2023-12-28T03:07:51;4.50;99.90
25046;DHT22;13044;49.304;12.840;2023-12-28T03:10:18;4.50;99.90
25046;DHT22;13044;49.304;12.840;2023-12-28T03:12:45;4.50;99.90
25046;DHT22;13044;49.304;12.840;2023-12-28T03:15:13;4.50;99.90
25046;DHT22;13044;49.304;12.840;2023-12-28T03:17:40;4.40;99.90
25046;DHT22;13044;49.304;12.840;2023-12-28T03:20:08;4.40;99.90
25046;DHT22;13044;49.304;12.840;2023-12-28T03:22:36;4.40;99.90
25046;DHT22;13044;49.304;12.840;2023-12-28T03:25:03;4.40;99.90
25046;DHT22;13044;49.304;12.840;2023-12-28T03:27:31;4.40;99.90
25046;DHT22;13044;49.304;12.840;2023-12-28T03:29:58;4.40;99.90
25046;DHT22;13044;49.304;12.840;2023-12-28T03:32:25;4.40;99.90
25046;DHT22;13044;49.304;12.840;2023-12-28T03:34:52;4.40;99.90
25046;DHT22;13044;49.304;12.840;2023-12-28T03:37:19;4.40;99.90
25046;DHT22;13044;49.304;12.840;2023-12-28T03:39:45;4.40;99.90
25046;DHT22;13044;49.304;12.840;2023-12-28T03:42:13;4.40;99.90
25046;DHT22;13044;49.304;12.840;2023-12-28T03:44:40;4.40;99.90
25046;DHT22;13044;49.304;12.840;2023-12-28T03:47:07;4.30;99.90
25046;DHT22;13044;49.304;12.840;2023-12-28T03:49:34;4.30;99.90
25046;DHT22;13044;49.304;12.840;2023-12-28T03:52:01;4.30;99.90
25046;DHT22;13044;49.304;12.840;2023-12-28T03:54:28;4.30;99.90
25046;DHT22;13044;49.304;12.840;2023-12-28T03:56:56;4.20;99.90
25046;DHT22;13044;49.304;12.840;2023-12-28T03:59:23;4.20;99.90
25046;DHT22;13044;49.304;12.840;2023-12-28T04:01:50;4.20;99.90
25046;DHT22;13044;49.304;12.840;2023-12-28T04:04:17;4.10;99.90
25046;DHT22;13044;49.304;12.840;2023-12-28T04:06:44;4.10;99.90
25046;DHT22;13044;49.304;12.840;2023-12-28T04:09:12;4.10;99.90
25046;DHT22;13044;49.304;12.840;2023-12-28T04:11:39;4.10;99.90
25046;DHT22;13044;49.304;12.840;2023-12-28T04:14:06;4.10;99.90
25046;DHT22;13044;49.304;12.840;2023-12-28T04:16:33;4.10;99.90
25046;DHT22;13044;49.304;12.840;2023-12-28T04:19:00;4.00;99.90
25046;DHT22;13044;49.304;12.840;2023-12-28T04:21:27;4.10;99.90
25046;DHT22;13044;49.304;12.840;2023-12-28T04:23:54;4.10;99.90
25046;DHT22;13044;49.304;12.840;2023-12-28T04:26:21;4.10;99.90
25046;DHT22;13044;49.304;12.840;2023-12-28T04:28:47;4.10;99.90
25046;DHT22;13044;49.304;12.840;2023-12-28T04:31:14;4.10;99.90
25046;DHT22;13044;49.304;12.840;2023-12-28T04:33:41;4.10;99.90
25046;DHT22;13044;49.304;12.840;2023-12-28T04:36:08;4.10;99.90
25046;DHT22;13044;49.304;12.840;2023-12-28T04:38:36;4.20;99.90
25046;DHT22;13044;49.304;12.840;2023-12-28T04:41:05;4.20;99.90
25046;DHT22;13044;49.304;12.840;2023-12-28T04:43:32;4.20;99.90
25046;DHT22;13044;49.304;12.840;2023-12-28T04:46:03;4.20;99.90
25046;DHT22;13044;49.304;12.840;2023-12-28T04:48:31;4.10;99.90
25046;DHT22;13044;49.304;12.840;2023-12-28T04:51:02;4.20;99.90
25046;DHT22;13044;49.304;12.840;2023-12-28T04:53:29;4.20;99.90
25046;DHT22;13044;49.304;12.840;2023-12-28T04:55:56;4.20;99.90
25046;DHT22;13044;49.304;12.840;2023-12-28T04:58:23;4.10;99.90
25046;DHT22;13044;49.304;12.840;2023-12-28T05:00:50;4.10;99.90
25046;DHT22;13044;49.304;12.840;2023-12-28T05:03:17;4.20;99.90
25046;DHT22;13044;49.304;12.840;2023-12-28T05:05:44;4.20;99.90
25046;DHT22;13044;49.304;12.840;2023-12-28T05:08:11;4.20;99.90
25046;DHT22;13044;49.304;12.840;2023-12-28T05:10:38;4.20;99.90
25046;DHT22;13044;49.304;12.840;2023-12-28T05:13:05;4.20;99.90
25046;DHT22;13044;49.304;12.840;2023-12-28T05:15:32;4.20;99.90
25046;DHT22;13044;49.304;12.840;2023-12-28T05:17:59;4.20;99.90
25046;DHT22;13044;49.304;12.840;2023-12-28T05:20:26;4.20;99.90
25046;DHT22;13044;49.304;12.840;2023-12-28T05:22:53;4.20;99.90
25046;DHT22;13044;49.304;12.840;2023-12-28T05:25:20;4.20;99.90
25046;DHT22;13044;49.304;12.840;2023-12-28T05:27:47;4.10;99.90
25046;DHT22;13044;49.304;12.840;2023-12-28T05:30:14;4.10;99.90
25046;DHT22;13044;49.304;12.840;2023-12-28T05:32:41;4.10;99.90
25046;DHT22;13044;49.304;12.840;2023-12-28T05:35:08;4.10;99.90
25046;DHT22;13044;49.304;12.840;2023-12-28T05:37:35;4.10;99.90
25046;DHT22;13044;49.304;12.840;2023-12-28T05:40:02;4.10;99.90
25046;DHT22;13044;49.304;12.840;2023-12-28T05:42:29;4.10;99.90
25046;DHT22;13044;49.304;12.840;2023-12-28T05:44:56;4.10;99.90
25046;DHT22;13044;49.304;12.840;2023-12-28T05:47:23;4.00;99.90
25046;DHT22;13044;49.304;12.840;2023-12-28T05:49:50;4.00;99.90
25046;DHT22;13044;49.304;12.840;2023-12-28T05:52:18;4.00;99.90
25046;DHT22;13044;49.304;12.840;2023-12-28T05:54:46;4.00;99.90
25046;DHT22;13044;49.304;12.840;2023-12-28T05:57:15;4.10;99.90
25046;DHT22;13044;49.304;12.840;2023-12-28T05:59:42;4.10;99.90
25046;DHT22;13044;49.304;12.840;2023-12-28T06:02:09;4.10;99.90
25046;DHT22;13044;49.304;12.840;2023-12-28T06:04:36;4.10;99.90
25046;DHT22;13044;49.304;12.840;2023-12-28T06:07:04;4.10;99.90
25046;DHT22;13044;49.304;12.840;2023-12-28T06:09:32;4.10;99.90
25046;DHT22;13044;49.304;12.840;2023-12-28T06:11:59;4.20;99.90
25046;DHT22;13044;49.304;12.840;2023-12-28T06:14:26;4.20;99.90
25046;DHT22;13044;49.304;12.840;2023-12-28T06:16:53;4.20;99.90
25046;DHT22;13044;49.304;12.840;2023-12-28T06:19:21;4.20;99.90
25046;DHT22;13044;49.304;12.840;2023-12-28T06:21:51;4.20;99.90
25046;DHT22;13044;49.304;12.840;2023-12-28T06:24:18;4.10;99.90
25046;DHT22;13044;49.304;12.840;2023-12-28T06:26:45;4.10;99.90
25046;DHT22;13044;49.304;12.840;2023-12-28T06:29:12;4.10;99.90
25046;DHT22;13044;49.304;12.840;2023-12-28T06:31:39;4.10;99.90
25046;DHT22;13044;49.304;12.840;2023-12-28T06:34:07;4.10;99.90
25046;DHT22;13044;49.304;12.840;2023-12-28T06:36:34;4.10;99.90
25046;DHT22;13044;49.304;12.840;2023-12-28T06:39:02;4.10;99.90
25046;DHT22;13044;49.304;12.840;2023-12-28T06:41:30;4.10;99.90
25046;DHT22;13044;49.304;12.840;2023-12-28T06:43:57;4.10;99.90
25046;DHT22;13044;49.304;12.840;2023-12-28T06:46:24;4.20;99.90
25046;DHT22;13044;49.304;12.840;2023-12-28T06:48:51;4.20;99.90
25046;DHT22;13044;49.304;12.840;2023-12-28T06:51:20;4.20;99.90
25046;DHT22;13044;49.304;12.840;2023-12-28T06:53:49;4.20;99.90
25046;DHT22;13044;49.304;12.840;2023-12-28T06:56:17;4.30;99.90
25046;DHT22;13044;49.304;12.840;2023-12-28T06:58:44;4.30;99.90
25046;DHT22;13044;49.304;12.840;2023-12-28T07:01:11;4.30;99.90
25046;DHT22;13044;49.304;12.840;2023-12-28T07:03:40;4.40;99.90
25046;DHT22;13044;49.304;12.840;2023-12-28T07:06:07;4.40;99.90
25046;DHT22;13044;49.304;12.840;2023-12-28T07:08:35;4.50;99.90
25046;DHT22;13044;49.304;12.840;2023-12-28T07:11:03;4.50;99.90
25046;DHT22;13044;49.304;12.840;2023-12-28T07:13:31;4.50;99.90
25046;DHT22;13044;49.304;12.840;2023-12-28T07:15:59;4.60;99.90
25046;DHT22;13044;49.304;12.840;2023-12-28T07:18:27;4.60;99.90
25046;DHT22;13044;49.304;12.840;2023-12-28T07:20:55;4.60;99.90
25046;DHT22;13044;49.304;12.840;2023-12-28T07:23:22;4.70;99.90
25046;DHT22;13044;49.304;12.840;2023-12-28T07:25:49;4.70;99.90
25046;DHT22;13044;49.304;12.840;2023-12-28T07:28:16;4.70;99.90
25046;DHT22;13044;49.304;12.840;2023-12-28T07:30:43;4.80;99.90
25046;DHT22;13044;49.304;12.840;2023-12-28T07:33:10;4.80;99.90
25046;DHT22;13044;49.304;12.840;2023-12-28T07:35:37;4.90;99.90
25046;DHT22;13044;49.304;12.840;2023-12-28T07:38:05;4.90;99.90
25046;DHT22;13044;49.304;12.840;2023-12-28T07:40:32;5.00;99.90
25046;DHT22;13044;49.304;12.840;2023-12-28T07:42:58;5.00;99.90
25046;DHT22;13044;49.304;12.840;2023-12-28T07:45:27;5.00;99.90
25046;DHT22;13044;49.304;12.840;2023-12-28T07:47:54;5.10;99.90
25046;DHT22;13044;49.304;12.840;2023-12-28T07:50:22;5.10;99.90
25046;DHT22;13044;49.304;12.840;2023-12-28T07:52:49;5.20;99.90
25046;DHT22;13044;49.304;12.840;2023-12-28T07:55:16;5.20;99.90
25046;DHT22;13044;49.304;12.840;2023-12-28T07:57:43;5.20;99.90
25046;DHT22;13044;49.304;12.840;2023-12-28T08:00:10;5.30;99.90
25046;DHT22;13044;49.304;12.840;2023-12-28T08:02:38;5.30;99.90
25046;DHT22;13044;49.304;12.840;2023-12-28T08:05:05;5.40;99.90
25046;DHT22;13044;49.304;12.840;2023-12-28T08:07:32;5.40;99.90
25046;DHT22;13044;49.304;12.840;2023-12-28T08:10:00;5.40;99.90
25046;DHT22;13044;49.304;12.840;2023-12-28T08:12:27;5.40;99.90
25046;DHT22;13044;49.304;12.840;2023-12-28T08:14:55;5.50;99.90
25046;DHT22;13044;49.304;12.840;2023-12-28T08:17:22;5.60;99.90
25046;DHT22;13044;49.304;12.840;2023-12-28T08:19:50;5.60;99.90
25046;DHT22;13044;49.304;12.840;2023-12-28T08:22:17;5.70;99.90
25046;DHT22;13044;49.304;12.840;2023-12-28T08:24:45;5.80;99.90
25046;DHT22;13044;49.304;12.840;2023-12-28T08:27:12;5.80;99.90
25046;DHT22;13044;49.304;12.840;2023-12-28T08:29:40;5.90;99.90
25046;DHT22;13044;49.304;12.840;2023-12-28T08:32:10;6.00;99.90
25046;DHT22;13044;49.304;12.840;2023-12-28T08:34:38;6.10;99.90
25046;DHT22;13044;49.304;12.840;2023-12-28T08:37:05;6.10;99.90
25046;DHT22;13044;49.304;12.840;2023-12-28T08:39:33;6.10;99.90
25046;DHT22;13044;49.304;12.840;2023-12-28T08:42:00;6.20;99.90
25046;DHT22;13044;49.304;12.840;2023-12-28T08:44:27;6.20;99.90
25046;DHT22;13044;49.304;12.840;2023-12-28T08:46:54;6.20;99.90
25046;DHT22;13044;49.304;12.840;2023-12-28T08:49:21;6.30;99.90
25046;DHT22;13044;49.304;12.840;2023-12-28T08:51:49;6.30;99.90
25046;DHT22;13044;49.304;12.840;2023-12-28T08:54:16;6.40;99.90
25046;DHT22;13044;49.304;12.840;2023-12-28T08:56:43;6.40;99.90
25046;DHT22;13044;49.304;12.840;2023-12-28T08:59:10;6.40;99.90
25046;DHT22;13044;49.304;12.840;2023-12-28T09:01:37;6.40;99.90
25046;DHT22;13044;49.304;12.840;2023-12-28T09:04:04;6.40;99.90
25046;DHT22;13044;49.304;12.840;2023-12-28T09:06:31;6.40;99.90
25046;DHT22;13044;49.304;12.840;2023-12-28T09:08:58;6.40;99.90
25046;DHT22;13044;49.304;12.840;2023-12-28T09:11:25;6.50;99.90
25046;DHT22;13044;49.304;12.840;2023-12-28T09:13:53;6.50;99.90
25046;DHT22;13044;49.304;12.840;2023-12-28T09:16:20;6.60;99.90
25046;DHT22;13044;49.304;12.840;2023-12-28T09:18:46;6.60;99.90
25046;DHT22;13044;49.304;12.840;2023-12-28T09:21:14;6.70;99.90
25046;DHT22;13044;49.304;12.840;2023-12-28T09:23:40;6.70;99.90
25046;DHT22;13044;49.304;12.840;2023-12-28T09:26:07;6.70;99.90
25046;DHT22;13044;49.304;12.840;2023-12-28T09:28:35;6.80;99.90
25046;DHT22;13044;49.304;12.840;2023-12-28T09:31:02;6.80;99.90
25046;DHT22;13044;49.304;12.840;2023-12-28T09:33:30;6.90;99.90
25046;DHT22;13044;49.304;12.840;2023-12-28T09:35:58;6.90;99.90
25046;DHT22;13044;49.304;12.840;2023-12-28T09:38:26;6.90;99.90
25046;DHT22;13044;49.304;12.840;2023-12-28T09:40:55;6.90;99.90
25046;DHT22;13044;49.304;12.840;2023-12-28T09:43:26;6.90;99.90
25046;DHT22;13044;49.304;12.840;2023-12-28T09:46:07;6.90;99.90
25046;DHT22;13044;49.304;12.840;2023-12-28T09:48:34;7.00;99.90
25046;DHT22;13044;49.304;12.840;2023-12-28T09:51:03;7.10;99.90
25046;DHT22;13044;49.304;12.840;2023-12-28T09:53:31;7.10;99.90
25046;DHT22;13044;49.304;12.840;2023-12-28T09:55:59;7.20;99.90
25046;DHT22;13044;49.304;12.840;2023-12-28T09:58:27;7.30;99.90
25046;DHT22;13044;49.304;12.840;2023-12-28T10:00:56;7.30;99.90
25046;DHT22;13044;49.304;12.840;2023-12-28T10:03:23;7.40;99.90
25046;DHT22;13044;49.304;12.840;2023-12-28T10:05:50;7.50;99.90
25046;DHT22;13044;49.304;12.840;2023-12-28T10:08:17;7.50;99.90
25046;DHT22;13044;49.304;12.840;2023-12-28T10:10:44;7.60;99.90
25046;DHT22;13044;49.304;12.840;2023-12-28T10:13:18;7.60;99.90
25046;DHT22;13044;49.304;12.840;2023-12-28T10:15:45;7.60;99.90
25046;DHT22;13044;49.304;12.840;2023-12-28T10:18:12;7.70;99.90
25046;DHT22;13044;49.304;12.840;2023-12-28T10:20:39;7.70;99.90
25046;DHT22;13044;49.304;12.840;2023-12-28T10:23:06;7.70;99.90
25046;DHT22;13044;49.304;12.840;2023-12-28T10:25:34;7.70;99.90
25046;DHT22;13044;49.304;12.840;2023-12-28T10:28:05;7.70;99.90
25046;DHT22;13044;49.304;12.840;2023-12-28T10:30:33;7.80;99.90
25046;DHT22;13044;49.304;12.840;2023-12-28T10:33:00;7.80;99.90
25046;DHT22;13044;49.304;12.840;2023-12-28T10:35:29;7.90;99.90
25046;DHT22;13044;49.304;12.840;2023-12-28T10:38:00;7.90;99.90
25046;DHT22;13044;49.304;12.840;2023-12-28T10:40:28;7.90;99.90
25046;DHT22;13044;49.304;12.840;2023-12-28T10:42:58;7.90;99.90
25046;DHT22;13044;49.304;12.840;2023-12-28T10:45:32;8.00;99.90
25046;DHT22;13044;49.304;12.840;2023-12-28T10:48:10;8.00;99.90
25046;DHT22;13044;49.304;12.840;2023-12-28T10:53:26;8.10;99.90
25046;DHT22;13044;49.304;12.840;2023-12-28T11:01:56;8.20;99.90
25046;DHT22;13044;49.304;12.840;2023-12-28T11:07:05;8.40;99.90
25046;DHT22;13044;49.304;12.840;2023-12-28T11:09:34;8.40;99.90
25046;DHT22;13044;49.304;12.840;2023-12-28T11:12:03;8.40;99.90
25046;DHT22;13044;49.304;12.840;2023-12-28T11:14:31;8.40;99.90
25046;DHT22;13044;49.304;12.840;2023-12-28T11:16:59;8.40;99.90
25046;DHT22;13044;49.304;12.840;2023-12-28T11:19:30;8.40;99.90
25046;DHT22;13044;49.304;12.840;2023-12-28T11:21:59;8.40;99.90
25046;DHT22;13044;49.304;12.840;2023-12-28T11:24:28;8.40;99.90
25046;DHT22;13044;49.304;12.840;2023-12-28T11:26:56;8.40;99.90
25046;DHT22;13044;49.304;12.840;2023-12-28T11:29:24;8.40;99.90
25046;DHT22;13044;49.304;12.840;2023-12-28T11:31:52;8.40;99.90
25046;DHT22;13044;49.304;12.840;2023-12-28T11:34:28;8.40;99.90
25046;DHT22;13044;49.304;12.840;2023-12-28T11:36:59;8.50;99.90
25046;DHT22;13044;49.304;12.840;2023-12-28T11:39:35;8.40;99.90
25046;DHT22;13044;49.304;12.840;2023-12-28T11:42:04;8.40;99.90
25046;DHT22;13044;49.304;12.840;2023-12-28T11:44:43;8.40;99.90
25046;DHT22;13044;49.304;12.840;2023-12-28T11:47:17;8.40;99.90
25046;DHT22;13044;49.304;12.840;2023-12-28T11:49:48;8.40;99.90
25046;DHT22;13044;49.304;12.840;2023-12-28T11:54:54;8.50;99.90
25046;DHT22;13044;49.304;12.840;2023-12-28T11:57:21;8.60;99.90
25046;DHT22;13044;49.304;12.840;2023-12-28T11:59:57;8.60;99.90
25046;DHT22;13044;49.304;12.840;2023-12-28T12:02:27;8.60;99.90
25046;DHT22;13044;49.304;12.840;2023-12-28T12:04:54;8.70;99.90
25046;DHT22;13044;49.304;12.840;2023-12-28T12:07:24;8.70;99.90
25046;DHT22;13044;49.304;12.840;2023-12-28T12:09:58;8.70;99.90
25046;DHT22;13044;49.304;12.840;2023-12-28T12:12:26;8.80;99.90
25046;DHT22;13044;49.304;12.840;2023-12-28T12:14:54;8.80;99.90
25046;DHT22;13044;49.304;12.840;2023-12-28T12:17:22;8.70;99.90
25046;DHT22;13044;49.304;12.840;2023-12-28T12:19:51;8.80;99.90
25046;DHT22;13044;49.304;12.840;2023-12-28T12:22:22;8.70;99.90
25046;DHT22;13044;49.304;12.840;2023-12-28T12:24:51;8.80;99.90
25046;DHT22;13044;49.304;12.840;2023-12-28T12:27:20;8.80;99.90
25046;DHT22;13044;49.304;12.840;2023-12-28T12:29:46;8.80;99.90
25046;DHT22;13044;49.304;12.840;2023-12-28T12:32:14;8.80;99.90
25046;DHT22;13044;49.304;12.840;2023-12-28T12:34:41;8.70;99.90
25046;DHT22;13044;49.304;12.840;2023-12-28T12:37:08;8.70;99.90
25046;DHT22;13044;49.304;12.840;2023-12-28T12:39:35;8.70;99.90
25046;DHT22;13044;49.304;12.840;2023-12-28T12:42:03;8.70;99.90
25046;DHT22;13044;49.304;12.840;2023-12-28T12:44:30;8.70;99.90
25046;DHT22;13044;49.304;12.840;2023-12-28T12:46:58;8.50;99.90
25046;DHT22;13044;49.304;12.840;2023-12-28T12:49:26;8.50;99.90
25046;DHT22;13044;49.304;12.840;2023-12-28T12:51:53;8.60;99.90
25046;DHT22;13044;49.304;12.840;2023-12-28T12:54:21;8.60;99.90
25046;DHT22;13044;49.304;12.840;2023-12-28T12:56:49;8.50;99.90
25046;DHT22;13044;49.304;12.840;2023-12-28T12:59:16;8.60;99.90
25046;DHT22;13044;49.304;12.840;2023-12-28T13:01:45;8.50;99.90
25046;DHT22;13044;49.304;12.840;2023-12-28T13:04:19;8.60;99.90
25046;DHT22;13044;49.304;12.840;2023-12-28T13:06:46;8.50;99.90
25046;DHT22;13044;49.304;12.840;2023-12-28T13:09:13;8.50;99.90
25046;DHT22;13044;49.304;12.840;2023-12-28T13:11:40;8.50;99.90
25046;DHT22;13044;49.304;12.840;2023-12-28T13:14:08;8.50;99.90
25046;DHT22;13044;49.304;12.840;2023-12-28T13:16:35;8.50;99.90
25046;DHT22;13044;49.304;12.840;2023-12-28T13:19:01;8.50;99.90
25046;DHT22;13044;49.304;12.840;2023-12-28T13:21:28;8.50;99.90
25046;DHT22;13044;49.304;12.840;2023-12-28T13:23:56;8.50;99.90
25046;DHT22;13044;49.304;12.840;2023-12-28T13:26:26;8.50;99.90
25046;DHT22;13044;49.304;12.840;2023-12-28T13:28:53;8.50;99.90
25046;DHT22;13044;49.304;12.840;2023-12-28T13:31:19;8.60;99.90
25046;DHT22;13044;49.304;12.840;2023-12-28T13:33:47;8.60;99.90
25046;DHT22;13044;49.304;12.840;2023-12-28T13:36:14;8.60;99.90
25046;DHT22;13044;49.304;12.840;2023-12-28T13:38:40;8.60;99.90
25046;DHT22;13044;49.304;12.840;2023-12-28T13:41:07;8.60;99.90
25046;DHT22;13044;49.304;12.840;2023-12-28T13:43:35;8.60;99.90
25046;DHT22;13044;49.304;12.840;2023-12-28T13:46:02;8.60;99.90
25046;DHT22;13044;49.304;12.840;2023-12-28T13:48:30;8.60;99.90
25046;DHT22;13044;49.304;12.840;2023-12-28T13:50:58;8.60;99.90
25046;DHT22;13044;49.304;12.840;2023-12-28T13:53:25;8.70;99.90
25046;DHT22;13044;49.304;12.840;2023-12-28T13:55:52;8.70;99.90
25046;DHT22;13044;49.304;12.840;2023-12-28T13:58:19;8.70;99.90
25046;DHT22;13044;49.304;12.840;2023-12-28T14:00:46;8.70;99.90
25046;DHT22;13044;49.304;12.840;2023-12-28T14:03:14;8.80;99.90
25046;DHT22;13044;49.304;12.840;2023-12-28T14:05:41;8.80;99.90
25046;DHT22;13044;49.304;12.840;2023-12-28T14:08:09;8.80;99.90
25046;DHT22;13044;49.304;12.840;2023-12-28T14:10:37;8.80;99.90
25046;DHT22;13044;49.304;12.840;2023-12-28T14:13:04;8.80;99.90
25046;DHT22;13044;49.304;12.840;2023-12-28T14:15:35;8.80;99.90
25046;DHT22;13044;49.304;12.840;2023-12-28T14:18:02;8.80;99.90
25046;DHT22;13044;49.304;12.840;2023-12-28T14:20:32;8.80;99.90
25046;DHT22;13044;49.304;12.840;2023-12-28T14:22:59;8.80;99.90
25046;DHT22;13044;49.304;12.840;2023-12-28T14:25:27;8.80;99.90
25046;DHT22;13044;49.304;12.840;2023-12-28T14:27:54;8.70;99.90
25046;DHT22;13044;49.304;12.840;2023-12-28T14:30:22;8.70;99.90
25046;DHT22;13044;49.304;12.840;2023-12-28T14:32:49;8.70;99.90
25046;DHT22;13044;49.304;12.840;2023-12-28T14:35:17;8.60;99.90
25046;DHT22;13044;49.304;12.840;2023-12-28T14:37:45;8.70;99.90
25046;DHT22;13044;49.304;12.840;2023-12-28T14:40:12;8.70;99.90
25046;DHT22;13044;49.304;12.840;2023-12-28T14:42:39;8.70;99.90
25046;DHT22;13044;49.304;12.840;2023-12-28T14:45:07;8.60;99.90
25046;DHT22;13044;49.304;12.840;2023-12-28T14:47:34;8.60;99.90
25046;DHT22;13044;49.304;12.840;2023-12-28T14:50:02;8.60;99.90
25046;DHT22;13044;49.304;12.840;2023-12-28T14:52:32;8.60;99.90
25046;DHT22;13044;49.304;12.840;2023-12-28T14:54:59;8.60;99.90
25046;DHT22;13044;49.304;12.840;2023-12-28T14:57:26;8.60;99.90
25046;DHT22;13044;49.304;12.840;2023-12-28T14:59:53;8.60;99.90
25046;DHT22;13044;49.304;12.840;2023-12-28T15:02:19;8.60;99.90
25046;DHT22;13044;49.304;12.840;2023-12-28T15:04:46;8.50;99.90
25046;DHT22;13044;49.304;12.840;2023-12-28T15:07:13;8.60;99.90
25046;DHT22;13044;49.304;12.840;2023-12-28T15:09:40;8.60;99.90
25046;DHT22;13044;49.304;12.840;2023-12-28T15:12:08;8.60;99.90
25046;DHT22;13044;49.304;12.840;2023-12-28T15:14:35;8.60;99.90
25046;DHT22;13044;49.304;12.840;2023-12-28T15:17:02;8.50;99.90
25046;DHT22;13044;49.304;12.840;2023-12-28T15:19:35;8.60;99.90
25046;DHT22;13044;49.304;12.840;2023-12-28T15:22:02;8.50;99.90
25046;DHT22;13044;49.304;12.840;2023-12-28T15:24:30;8.50;99.90
25046;DHT22;13044;49.304;12.840;2023-12-28T15:26:57;8.60;99.90
25046;DHT22;13044;49.304;12.840;2023-12-28T15:29:24;8.60;99.90
25046;DHT22;13044;49.304;12.840;2023-12-28T15:31:52;8.50;99.90
25046;DHT22;13044;49.304;12.840;2023-12-28T15:34:19;8.50;99.90
25046;DHT22;13044;49.304;12.840;2023-12-28T15:36:46;8.50;99.90
25046;DHT22;13044;49.304;12.840;2023-12-28T15:39:13;8.50;99.90
25046;DHT22;13044;49.304;12.840;2023-12-28T15:41:40;8.50;99.90
25046;DHT22;13044;49.304;12.840;2023-12-28T15:44:07;8.50;99.90
25046;DHT22;13044;49.304;12.840;2023-12-28T15:46:33;8.50;99.90
25046;DHT22;13044;49.304;12.840;2023-12-28T15:49:01;8.50;99.90
25046;DHT22;13044;49.304;12.840;2023-12-28T15:51:28;8.40;99.90
25046;DHT22;13044;49.304;12.840;2023-12-28T15:53:55;8.40;99.90